Time;durP1;ratioP1;P1;durP2;ratioP2;P2;SDS_P1;SDS_P2;PMS_P1;PMS_P2;Temp;Humidity;BMP_temperature;BMP_pressure;BME280_temperature;BME280_humidity;BME280_pressure;Samples;Min_cycle;Max_cycle;Signal;HPM_P1;HPM_P2
2023/05/04 00:00:51;;;;;;;2.70;1.90;;;14.30;40.00;;;;;;5015931;28;20259;-75
2023/05/04 00:03:17;;;;;;;2.60;1.60;;;14.70;38.40;;;;;;5020024;28;20631;-75
2023/05/04 00:05:43;;;;;;;2.37;1.60;;;14.70;38.90;;;;;;5010792;28;20430;-74
2023/05/04 00:08:08;;;;;;;2.30;1.50;;;14.50;39.60;;;;;;5024245;28;20285;-75
2023/05/04 00:10:34;;;;;;;2.20;1.40;;;14.50;39.80;;;;;;5026799;28;20277;-75
2023/05/04 00:12:59;;;;;;;2.30;1.50;;;14.20;40.00;;;;;;5003779;28;20190;-75
2023/05/04 00:15:26;;;;;;;2.23;1.47;;;14.20;39.60;;;;;;5006879;28;20203;-74
2023/05/04 00:17:51;;;;;;;2.20;1.50;;;14.00;40.10;;;;;;5022486;28;20212;-75
2023/05/04 00:20:17;;;;;;;2.67;1.50;;;14.00;40.00;;;;;;5021412;28;20453;-74
2023/05/04 00:22:43;;;;;;;2.57;1.80;;;14.00;39.70;;;;;;5018513;28;20196;-73
2023/05/04 00:25:09;;;;;;;2.37;1.63;;;14.00;40.60;;;;;;5010184;28;20177;-75
2023/05/04 00:27:34;;;;;;;2.30;1.53;;;13.90;41.60;;;;;;5017818;28;20192;-75
2023/05/04 00:30:00;;;;;;;2.43;1.40;;;13.90;40.80;;;;;;5020770;28;20228;-75
2023/05/04 00:32:26;;;;;;;2.60;1.90;;;13.90;41.30;;;;;;5017460;28;20192;-75
2023/05/04 00:34:51;;;;;;;2.20;1.57;;;14.10;40.70;;;;;;5000577;28;20198;-74
2023/05/04 00:37:17;;;;;;;4.03;2.17;;;13.80;41.00;;;;;;5003712;28;20210;-75
2023/05/04 00:39:43;;;;;;;2.70;1.90;;;14.00;40.90;;;;;;5020569;28;20174;-75
2023/05/04 00:42:08;;;;;;;4.33;1.77;;;14.30;40.60;;;;;;5017917;28;20194;-75
2023/05/04 00:44:34;;;;;;;3.40;1.80;;;13.90;40.40;;;;;;5007691;28;20193;-74
2023/05/04 00:47:00;;;;;;;2.17;1.30;;;14.00;39.40;;;;;;4997730;28;20825;-73
2023/05/04 00:49:26;;;;;;;2.30;1.53;;;14.10;38.80;;;;;;5012124;28;20209;-75
2023/05/04 00:51:53;;;;;;;2.50;1.70;;;14.00;39.70;;;;;;5005113;28;20448;-75
2023/05/04 00:54:19;;;;;;;2.70;1.53;;;14.00;40.40;;;;;;5012166;28;20189;-72
2023/05/04 00:56:46;;;;;;;2.43;1.40;;;13.90;40.20;;;;;;5024456;28;20513;-75
2023/05/04 00:59:12;;;;;;;2.63;1.63;;;13.90;40.50;;;;;;5023195;28;20451;-75
2023/05/04 01:01:39;;;;;;;2.20;1.40;;;13.80;40.20;;;;;;5023902;28;20882;-74
2023/05/04 01:04:05;;;;;;;2.13;1.30;;;13.80;40.20;;;;;;5019873;28;20432;-74
2023/05/04 01:06:56;;;;;;;2.07;1.27;;;13.70;40.10;;;;;;5009187;28;20440;-75
2023/05/04 01:09:25;;;;;;;3.23;2.27;;;13.70;40.40;;;;;;5008122;28;20467;-74
2023/05/04 01:12:03;;;;;;;2.47;1.40;;;14.00;40.80;;;;;;5023767;28;20748;-75
2023/05/04 01:14:29;;;;;;;2.17;1.30;;;13.70;40.60;;;;;;5017637;28;20432;-75
2023/05/04 01:17:01;;;;;;;2.83;1.93;;;13.60;40.00;;;;;;5007205;28;20910;-75
2023/05/04 01:19:28;;;;;;;3.87;1.90;;;13.60;40.30;;;;;;5025484;28;20455;-74
2023/05/04 01:21:53;;;;;;;2.40;1.50;;;13.50;40.30;;;;;;5023790;28;20411;-75
2023/05/04 01:24:19;;;;;;;3.63;2.73;;;13.70;40.90;;;;;;5024889;28;20440;-75
2023/05/04 01:26:47;;;;;;;3.00;1.57;;;13.50;40.90;;;;;;5004524;28;20239;-74
2023/05/04 01:29:21;;;;;;;2.37;1.43;;;13.60;39.60;;;;;;5004197;28;20437;-74
2023/05/04 01:31:48;;;;;;;2.50;1.40;;;13.80;40.60;;;;;;5019868;28;20942;-75
2023/05/04 01:34:16;;;;;;;3.13;1.83;;;13.50;40.70;;;;;;5025766;28;20427;-75
2023/05/04 01:36:43;;;;;;;2.33;1.53;;;13.50;41.20;;;;;;5004883;28;20511;-75
2023/05/04 01:39:09;;;;;;;2.40;1.57;;;13.60;40.60;;;;;;5004829;28;20855;-75
2023/05/04 01:41:35;;;;;;;2.20;1.30;;;13.50;41.10;;;;;;5007948;28;20519;-75
2023/05/04 01:44:02;;;;;;;3.40;2.07;;;13.30;40.30;;;;;;5030616;28;20407;-74
2023/05/04 01:46:28;;;;;;;2.30;1.50;;;13.50;41.20;;;;;;5012699;28;20440;-75
2023/05/04 01:48:53;;;;;;;2.10;1.30;;;13.30;40.90;;;;;;5026104;28;20443;-75
2023/05/04 01:51:19;;;;;;;4.63;1.90;;;13.20;40.80;;;;;;5018919;28;20279;-75
2023/05/04 01:53:44;;;;;;;2.87;1.50;;;13.50;41.50;;;;;;5018441;28;20711;-75
2023/05/04 01:56:10;;;;;;;2.93;1.67;;;13.20;40.70;;;;;;5018919;28;20533;-74
2023/05/04 01:58:36;;;;;;;2.80;1.60;;;13.40;40.60;;;;;;5003257;28;20225;-75
2023/05/04 02:01:01;;;;;;;2.87;1.83;;;13.20;40.60;;;;;;5012594;28;20216;-73
2023/05/04 02:03:27;;;;;;;2.23;1.50;;;13.20;41.10;;;;;;5020321;28;20641;-76
2023/05/04 02:05:53;;;;;;;2.80;1.97;;;13.10;41.60;;;;;;5031501;28;20183;-75
2023/05/04 02:08:18;;;;;;;5.63;2.03;;;13.30;41.50;;;;;;5008237;28;20217;-75
2023/05/04 02:10:44;;;;;;;3.17;1.70;;;13.20;40.90;;;;;;5015375;28;20188;-76
2023/05/04 02:13:10;;;;;;;2.60;1.67;;;13.20;41.70;;;;;;5020433;28;20192;-74
2023/05/04 02:15:35;;;;;;;3.50;1.80;;;13.00;41.20;;;;;;5012166;28;20211;-76
2023/05/04 02:18:01;;;;;;;2.20;1.20;;;13.10;40.50;;;;;;5003872;28;20224;-75
2023/05/04 02:20:26;;;;;;;3.57;2.27;;;12.90;40.60;;;;;;4999988;28;20268;-74
2023/05/04 02:22:52;;;;;;;2.30;1.47;;;12.90;41.60;;;;;;5003106;28;20573;-74
2023/05/04 02:25:17;;;;;;;2.13;1.30;;;12.90;41.80;;;;;;5024792;28;20185;-75
2023/05/04 02:30:12;;;;;;;3.05;1.65;;;12.70;41.70;;;;;;5027780;28;20224;-69
2023/05/04 02:32:37;;;;;;;2.57;1.67;;;12.80;41.90;;;;;;5031582;28;20184;-67
2023/05/04 02:35:03;;;;;;;2.83;1.60;;;12.40;42.60;;;;;;5025774;28;20423;-67
2023/05/04 02:37:29;;;;;;;4.33;2.17;;;12.50;42.90;;;;;;5034277;28;20689;-67
2023/05/04 02:39:54;;;;;;;2.70;1.70;;;13.00;42.70;;;;;;5030792;28;20283;-70
2023/05/04 02:42:20;;;;;;;2.50;1.50;;;12.90;42.10;;;;;;5025995;28;20183;-67
2023/05/04 02:44:45;;;;;;;2.90;2.00;;;12.80;41.90;;;;;;5028680;28;20549;-69
2023/05/04 02:47:11;;;;;;;6.63;2.20;;;12.60;41.80;;;;;;5029844;28;20239;-67
2023/05/04 02:49:36;;;;;;;4.47;1.70;;;12.50;42.40;;;;;;5029686;28;20255;-68
2023/05/04 02:52:02;;;;;;;2.40;1.50;;;12.90;41.60;;;;;;5020813;28;20191;-67
2023/05/04 02:54:28;;;;;;;2.87;1.50;;;12.70;42.00;;;;;;5031636;28;20222;-67
2023/05/04 02:56:53;;;;;;;2.80;1.73;;;12.70;42.10;;;;;;5025909;28;20211;-67
2023/05/04 02:59:19;;;;;;;2.97;1.77;;;12.70;42.70;;;;;;5033226;28;20746;-70
2023/05/04 03:01:45;;;;;;;3.80;1.93;;;12.70;42.70;;;;;;5023568;28;20193;-67
2023/05/04 03:04:10;;;;;;;2.67;1.40;;;13.00;43.30;;;;;;5028807;28;20184;-67
2023/05/04 03:06:36;;;;;;;3.40;1.43;;;12.60;43.00;;;;;;5024654;28;20636;-67
2023/05/04 03:09:03;;;;;;;3.00;1.90;;;12.40;42.30;;;;;;5033745;28;20228;-67
2023/05/04 03:11:28;;;;;;;2.30;1.30;;;12.00;45.30;;;;;;5031316;28;20438;-69
2023/05/04 03:13:54;;;;;;;2.30;1.30;;;12.30;43.60;;;;;;5032255;28;20185;-68
2023/05/04 03:16:20;;;;;;;2.53;1.50;;;12.70;42.00;;;;;;5032118;28;20177;-66
2023/05/04 03:18:45;;;;;;;2.40;1.40;;;12.60;42.30;;;;;;5025901;28;20212;-68
2023/05/04 03:21:11;;;;;;;2.20;1.20;;;13.00;42.80;;;;;;5030187;28;20193;-70
2023/05/04 03:23:37;;;;;;;2.20;1.20;;;12.70;43.00;;;;;;5028333;28;20180;-70
2023/05/04 03:26:02;;;;;;;2.50;1.50;;;12.50;42.20;;;;;;5030616;28;20176;-70
2023/05/04 03:28:28;;;;;;;2.87;1.73;;;12.70;41.30;;;;;;5025754;28;20208;-70
2023/05/04 03:30:53;;;;;;;2.20;1.30;;;12.80;42.90;;;;;;5033171;28;20180;-69
2023/05/04 03:33:19;;;;;;;2.30;1.40;;;12.60;42.30;;;;;;5028913;28;20187;-70
2023/05/04 03:35:44;;;;;;;2.90;1.73;;;12.40;42.30;;;;;;5023365;28;20172;-69
2023/05/04 03:38:10;;;;;;;2.20;1.23;;;12.70;41.70;;;;;;5033041;28;20322;-69
2023/05/04 03:40:36;;;;;;;3.13;1.97;;;12.70;41.60;;;;;;5014248;28;20229;-69
2023/05/04 03:43:02;;;;;;;2.90;1.50;;;12.70;42.40;;;;;;5020510;28;20179;-69
2023/05/04 03:45:28;;;;;;;2.77;1.43;;;12.50;42.60;;;;;;5020338;28;20874;-70
2023/05/04 03:47:54;;;;;;;2.50;1.60;;;12.60;42.60;;;;;;5026794;28;20212;-70
2023/05/04 03:50:21;;;;;;;2.80;1.70;;;12.60;42.60;;;;;;5029826;28;20227;-70
2023/05/04 03:52:47;;;;;;;2.33;1.30;;;12.70;41.90;;;;;;5030477;28;20180;-70
2023/05/04 03:55:12;;;;;;;2.30;1.40;;;13.00;43.00;;;;;;5019398;28;20199;-70
2023/05/04 03:57:38;;;;;;;3.07;1.70;;;12.60;43.00;;;;;;5030223;28;20880;-70
2023/05/04 04:00:04;;;;;;;3.40;2.50;;;12.60;43.00;;;;;;5023136;28;20624;-67
2023/05/04 04:02:30;;;;;;;2.47;1.50;;;12.70;43.00;;;;;;5031880;28;20176;-70
2023/05/04 04:04:56;;;;;;;2.83;1.50;;;12.70;42.40;;;;;;5032639;28;20395;-70
2023/05/04 04:07:21;;;;;;;4.03;1.90;;;12.80;43.10;;;;;;5032621;28;20411;-70
2023/05/04 04:09:47;;;;;;;5.03;1.90;;;12.70;44.10;;;;;;5023061;28;20466;-70
2023/05/04 04:12:14;;;;;;;3.13;1.93;;;12.80;43.60;;;;;;5027666;28;20259;-70
2023/05/04 04:14:41;;;;;;;3.97;2.55;;;12.50;43.30;;;;;;5030360;28;20176;-70
2023/05/04 04:17:07;;;;;;;3.00;1.60;;;12.70;43.20;;;;;;5032283;28;20211;-70
2023/05/04 04:19:32;;;;;;;3.72;2.15;;;13.30;41.90;;;;;;5023170;28;20833;-70
2023/05/04 04:21:58;;;;;;;2.30;1.20;;;13.10;41.50;;;;;;5031113;28;20185;-70
2023/05/04 04:24:24;;;;;;;2.55;1.45;;;13.20;40.40;;;;;;5022338;28;20271;-70
2023/05/04 04:26:50;;;;;;;2.30;1.38;;;13.50;40.30;;;;;;5031999;28;20598;-70
2023/05/04 04:29:16;;;;;;;2.40;1.43;;;13.50;39.60;;;;;;5030987;28;20353;-70
2023/05/04 04:31:42;;;;;;;4.53;2.30;;;13.00;41.30;;;;;;5023487;28;20941;-69
2023/05/04 04:34:07;;;;;;;3.50;1.63;;;12.70;41.90;;;;;;5020528;28;20189;-69
2023/05/04 04:36:33;;;;;;;2.87;1.87;;;12.70;43.10;;;;;;5030851;28;20267;-69
2023/05/04 04:38:59;;;;;;;2.70;1.63;;;12.60;42.50;;;;;;5030823;28;20466;-69
2023/05/04 04:41:25;;;;;;;2.67;1.60;;;12.60;42.80;;;;;;5021701;28;20176;-69
2023/05/04 04:43:50;;;;;;;2.53;1.43;;;12.50;42.20;;;;;;5031755;28;20522;-69
2023/05/04 04:46:17;;;;;;;2.67;1.70;;;12.50;43.00;;;;;;5017795;28;20264;-69
2023/05/04 04:48:42;;;;;;;2.40;1.30;;;12.60;43.00;;;;;;5030601;28;20574;-69
2023/05/04 04:51:11;;;;;;;2.30;1.30;;;12.70;42.10;;;;;;5023724;28;20526;-69
2023/05/04 04:53:37;;;;;;;7.73;2.67;;;13.00;42.20;;;;;;5026907;28;20193;-69
2023/05/04 04:56:04;;;;;;;3.80;1.60;;;12.70;42.20;;;;;;5019160;28;20443;-69
2023/05/04 04:58:31;;;;;;;2.70;1.50;;;12.70;42.70;;;;;;5031601;28;20204;-69
2023/05/04 05:00:57;;;;;;;2.60;1.50;;;12.80;42.70;;;;;;5029858;28;20180;-69
2023/05/04 05:03:23;;;;;;;2.70;1.70;;;12.80;43.60;;;;;;5015447;28;20922;-69
2023/05/04 05:05:48;;;;;;;9.77;5.33;;;12.90;42.60;;;;;;5025252;28;20189;-69
2023/05/04 05:08:15;;;;;;;10.77;7.10;;;13.00;42.50;;;;;;5027678;28;20972;-68
2023/05/04 05:10:41;;;;;;;10.73;7.78;;;13.10;41.30;;;;;;5032193;28;20190;-68
2023/05/04 05:13:07;;;;;;;9.23;6.70;;;13.30;41.60;;;;;;5029310;28;20188;-68
2023/05/04 05:15:33;;;;;;;15.43;10.33;;;13.10;41.80;;;;;;5022334;28;20188;-70
2023/05/04 05:17:58;;;;;;;21.63;8.13;;;13.20;42.40;;;;;;5025444;28;20470;-68
2023/05/04 05:20:24;;;;;;;9.57;6.70;;;13.30;42.00;;;;;;5031325;28;20640;-69
2023/05/04 05:22:51;;;;;;;35.57;9.67;;;13.40;41.10;;;;;;5030195;28;20443;-71
2023/05/04 05:25:16;;;;;;;15.10;9.40;;;13.40;41.50;;;;;;5021261;28;20176;-69
2023/05/04 05:27:42;;;;;;;10.60;5.93;;;13.50;41.30;;;;;;5031233;28;20446;-68
2023/05/04 05:30:08;;;;;;;9.50;6.53;;;13.60;42.30;;;;;;5031419;28;20287;-68
2023/05/04 05:32:33;;;;;;;11.03;5.60;;;13.80;41.00;;;;;;5031008;28;20658;-72
2023/05/04 05:34:59;;;;;;;8.80;5.30;;;14.30;41.70;;;;;;5030015;28;20185;-72
2023/05/04 05:37:24;;;;;;;4.63;3.20;;;14.20;40.80;;;;;;5028216;28;20200;-75
2023/05/04 05:39:50;;;;;;;3.20;1.73;;;13.80;40.50;;;;;;5031097;28;20199;-75
2023/05/04 05:42:16;;;;;;;3.30;2.17;;;14.00;40.20;;;;;;5027007;28;20216;-75
2023/05/04 05:44:41;;;;;;;2.63;1.50;;;14.00;41.10;;;;;;5024760;28;20184;-75
2023/05/04 05:47:07;;;;;;;2.87;1.77;;;13.90;40.20;;;;;;5028361;28;20559;-75
2023/05/04 05:49:33;;;;;;;3.10;2.00;;;14.10;38.80;;;;;;5022545;28;20206;-76
2023/05/04 05:51:59;;;;;;;8.70;3.00;;;14.50;38.70;;;;;;5030966;28;20180;-75
2023/05/04 05:54:25;;;;;;;2.83;1.80;;;14.40;37.60;;;;;;5024393;28;20504;-75
2023/05/04 05:56:51;;;;;;;3.80;2.17;;;14.10;39.00;;;;;;5022904;28;21100;-76
2023/05/04 05:59:16;;;;;;;3.70;2.20;;;14.00;38.80;;;;;;5032462;28;20194;-76
2023/05/04 06:01:42;;;;;;;2.60;1.50;;;13.90;38.60;;;;;;5018037;28;20649;-77
2023/05/04 06:04:08;;;;;;;2.30;1.47;;;14.00;38.80;;;;;;5030596;28;20673;-75
2023/05/04 06:06:34;;;;;;;3.00;2.00;;;14.00;39.00;;;;;;5018477;28;20270;-75
2023/05/04 06:08:59;;;;;;;3.03;1.83;;;14.30;39.20;;;;;;5034076;28;20544;-69
2023/05/04 06:11:26;;;;;;;2.97;1.87;;;14.00;39.00;;;;;;5041182;28;20189;-69
2023/05/04 06:13:51;;;;;;;3.27;2.03;;;14.40;39.90;;;;;;5036625;28;20184;-70
2023/05/04 06:16:17;;;;;;;2.90;1.90;;;14.80;38.70;;;;;;5033264;28;20957;-70
2023/05/04 06:18:43;;;;;;;2.67;1.70;;;15.00;37.00;;;;;;5025634;28;20247;-70
2023/05/04 06:21:09;;;;;;;2.10;1.40;;;14.80;38.40;;;;;;5034943;28;20198;-69
2023/05/04 06:23:35;;;;;;;2.17;1.47;;;14.90;38.20;;;;;;5034023;28;20175;-69
2023/05/04 06:26:01;;;;;;;4.20;2.27;;;15.40;37.40;;;;;;5032160;28;20278;-69
2023/05/04 06:28:26;;;;;;;2.60;1.77;;;15.70;35.80;;;;;;5030732;28;20523;-70
2023/05/04 06:30:52;;;;;;;2.40;1.90;;;15.40;36.90;;;;;;5028175;28;20188;-69
2023/05/04 06:33:18;;;;;;;4.23;2.07;;;15.60;37.60;;;;;;5034473;28;20171;-70
2023/05/04 06:35:44;;;;;;;3.03;1.93;;;15.10;36.70;;;;;;5036205;28;20183;-69
2023/05/04 06:38:09;;;;;;;3.40;2.03;;;15.00;38.30;;;;;;5033783;28;20302;-68
2023/05/04 06:40:35;;;;;;;2.47;1.97;;;15.30;37.70;;;;;;5026952;28;20517;-69
2023/05/04 06:43:01;;;;;;;2.37;1.80;;;15.30;37.30;;;;;;5028432;28;20684;-69
2023/05/04 06:45:26;;;;;;;2.90;2.37;;;15.80;37.70;;;;;;5033743;28;20168;-68
2023/05/04 06:47:52;;;;;;;2.37;1.67;;;15.50;37.50;;;;;;5034426;28;20265;-69
2023/05/04 06:50:18;;;;;;;7.70;3.23;;;15.80;36.40;;;;;;5031066;28;20259;-68
2023/05/04 06:52:45;;;;;;;2.47;1.83;;;15.70;36.60;;;;;;5025571;28;20180;-69
2023/05/04 06:55:10;;;;;;;3.27;2.30;;;15.50;37.10;;;;;;5034429;28;20189;-70
2023/05/04 06:57:36;;;;;;;3.43;2.13;;;15.80;36.40;;;;;;5034126;28;20462;-70
2023/05/04 07:00:03;;;;;;;6.30;3.70;;;16.20;36.40;;;;;;5028999;28;20198;-71
2023/05/04 07:02:28;;;;;;;3.83;2.10;;;16.20;36.20;;;;;;5031180;28;20728;-67
2023/05/04 07:04:55;;;;;;;2.33;1.63;;;16.40;34.90;;;;;;5036088;28;20407;-70
2023/05/04 07:07:21;;;;;;;2.27;1.57;;;16.60;33.40;;;;;;5036295;28;20219;-70
2023/05/04 07:09:47;;;;;;;3.47;2.47;;;16.40;33.90;;;;;;5033164;28;20459;-70
2023/05/04 07:12:13;;;;;;;2.20;1.60;;;16.50;34.20;;;;;;5021977;28;20191;-70
2023/05/04 07:14:39;;;;;;;3.67;2.17;;;16.50;34.50;;;;;;5032668;28;20421;-70
2023/05/04 07:17:04;;;;;;;2.93;1.93;;;17.10;32.50;;;;;;5032769;28;20573;-70
2023/05/04 07:19:30;;;;;;;2.20;1.50;;;17.70;32.70;;;;;;5024750;28;20207;-70
2023/05/04 07:21:56;;;;;;;3.53;2.10;;;18.00;31.30;;;;;;5030991;28;20238;-70
2023/05/04 07:24:22;;;;;;;2.80;2.20;;;18.40;29.40;;;;;;5032888;28;20178;-69
2023/05/04 07:26:47;;;;;;;2.60;1.77;;;18.70;29.70;;;;;;5019981;28;20617;-72
2023/05/04 07:29:13;;;;;;;2.27;1.60;;;18.80;29.80;;;;;;5023252;28;20214;-70
2023/05/04 07:31:38;;;;;;;2.63;1.77;;;18.90;29.60;;;;;;5030335;28;20556;-70
2023/05/04 07:34:04;;;;;;;2.40;1.80;;;19.00;29.60;;;;;;5031613;28;20595;-71
2023/05/04 07:36:33;;;;;;;2.40;1.60;;;19.00;29.50;;;;;;5039296;28;20174;-66
2023/05/04 07:38:58;;;;;;;3.73;2.27;;;19.20;29.40;;;;;;5044592;28;20711;-71
2023/05/04 07:41:25;;;;;;;3.03;2.20;;;19.50;29.20;;;;;;5032847;28;20461;-70
2023/05/04 07:43:50;;;;;;;4.23;2.47;;;19.60;28.10;;;;;;5019658;28;20210;-71
2023/05/04 07:46:16;;;;;;;3.23;1.93;;;19.60;28.20;;;;;;5028953;28;20420;-70
2023/05/04 07:48:41;;;;;;;2.93;2.13;;;19.30;28.50;;;;;;5032145;28;20197;-71
2023/05/04 07:51:12;;;;;;;2.80;1.93;;;19.70;29.80;;;;;;5032327;28;20252;-71
2023/05/04 07:53:38;;;;;;;2.70;1.77;;;19.80;29.00;;;;;;5028269;28;20238;-71
2023/05/04 07:56:11;;;;;;;2.63;1.90;;;20.00;27.50;;;;;;5023218;28;20485;-71
2023/05/04 07:58:37;;;;;;;3.50;2.13;;;20.00;27.90;;;;;;5032200;28;20216;-71
2023/05/04 08:01:03;;;;;;;2.70;1.93;;;19.80;27.40;;;;;;5032203;28;20425;-69
2023/05/04 08:03:29;;;;;;;3.07;1.97;;;19.80;27.30;;;;;;5029963;28;20177;-71
2023/05/04 08:05:55;;;;;;;2.80;1.90;;;19.90;27.60;;;;;;5020172;28;20463;-71
2023/05/04 08:08:21;;;;;;;3.27;2.30;;;20.20;27.40;;;;;;5028492;28;20535;-68
2023/05/04 08:10:46;;;;;;;2.30;1.47;;;20.40;28.00;;;;;;5032096;28;20679;-71
2023/05/04 08:13:12;;;;;;;2.60;1.67;;;20.10;27.10;;;;;;5031438;28;20184;-71
2023/05/04 08:15:37;;;;;;;3.17;1.80;;;20.50;28.80;;;;;;5021510;28;20201;-71
2023/05/04 08:18:03;;;;;;;2.63;1.63;;;20.60;27.50;;;;;;5026325;28;20390;-71
2023/05/04 08:20:29;;;;;;;3.60;2.23;;;21.00;25.90;;;;;;5030756;28;20190;-68
2023/05/04 08:22:54;;;;;;;3.53;2.10;;;20.30;26.90;;;;;;5023332;28;20191;-70
2023/05/04 08:25:24;;;;;;;4.30;1.97;;;19.50;27.40;;;;;;5021933;28;20184;-69
2023/05/04 08:27:49;;;;;;;3.30;1.80;;;20.00;26.40;;;;;;5026111;28;20215;-71
2023/05/04 08:30:15;;;;;;;2.93;1.93;;;20.20;25.70;;;;;;5032235;28;20940;-68
2023/05/04 08:32:41;;;;;;;3.00;1.87;;;20.10;25.60;;;;;;5018818;28;20576;-68
2023/05/04 08:35:07;;;;;;;2.67;1.60;;;20.30;26.90;;;;;;5022246;28;20435;-70
2023/05/04 08:37:33;;;;;;;3.20;1.87;;;20.80;24.90;;;;;;5027901;28;20214;-70
2023/05/04 08:39:58;;;;;;;4.50;2.10;;;20.90;23.40;;;;;;5030403;28;20470;-70
2023/05/04 08:42:30;;;;;;;7.43;2.27;;;20.90;21.80;;;;;;5023819;28;20181;-70
2023/05/04 08:44:57;;;;;;;6.20;1.80;;;20.90;23.10;;;;;;5031336;28;20192;-70
2023/05/04 08:47:24;;;;;;;2.73;1.70;;;20.80;22.70;;;;;;5027723;28;20444;-71
2023/05/04 08:49:51;;;;;;;3.13;1.63;;;21.20;21.90;;;;;;5032733;28;20449;-70
2023/05/04 08:52:17;;;;;;;2.80;1.80;;;21.20;21.40;;;;;;5034380;28;20849;-70
2023/05/04 08:54:44;;;;;;;5.60;2.37;;;21.00;21.80;;;;;;5031226;28;20421;-69
2023/05/04 08:57:11;;;;;;;2.80;1.73;;;21.10;23.50;;;;;;5028713;28;20469;-68
2023/05/04 08:59:37;;;;;;;2.80;1.70;;;21.40;21.70;;;;;;5022498;28;21052;-70
2023/05/04 09:02:02;;;;;;;3.37;1.73;;;21.40;21.80;;;;;;5019908;28;20412;-69
2023/05/04 09:04:29;;;;;;;4.20;2.00;;;21.50;20.80;;;;;;5029223;28;20199;-69
2023/05/04 09:06:56;;;;;;;2.60;1.57;;;21.80;23.00;;;;;;5030400;28;20175;-70
2023/05/04 09:09:23;;;;;;;7.53;2.27;;;21.90;21.20;;;;;;5025936;28;20500;-70
2023/05/04 09:11:49;;;;;;;2.80;1.70;;;22.20;20.80;;;;;;5024159;28;20410;-71
2023/05/04 09:14:14;;;;;;;3.03;1.70;;;21.90;19.80;;;;;;5030708;28;20407;-70
2023/05/04 09:16:40;;;;;;;3.00;1.70;;;22.10;20.70;;;;;;5031890;28;20182;-71
2023/05/04 09:19:32;;;;;;;2.80;1.60;;;22.30;20.00;;;;;;5030299;28;20223;-70
2023/05/04 09:21:59;;;;;;;3.10;1.77;;;22.50;18.50;;;;;;5025678;28;20769;-70
2023/05/04 09:24:29;;;;;;;3.00;1.70;;;22.60;18.30;;;;;;5030613;28;20411;-70
2023/05/04 09:27:07;;;;;;;3.13;1.60;;;22.50;18.90;;;;;;5031654;28;20743;-69
2023/05/04 09:29:36;;;;;;;3.80;1.93;;;22.70;19.50;;;;;;5027806;28;20482;-70
2023/05/04 09:32:03;;;;;;;2.70;1.50;;;22.60;18.30;;;;;;5019024;28;20549;-70
2023/05/04 09:34:29;;;;;;;3.37;1.60;;;22.60;19.90;;;;;;5033034;28;20847;-69
2023/05/04 09:37:00;;;;;;;3.10;1.63;;;22.50;19.50;;;;;;5035288;28;20519;-70
2023/05/04 09:39:26;;;;;;;2.90;1.43;;;22.60;19.90;;;;;;5035036;28;20185;-67
2023/05/04 09:41:52;;;;;;;2.70;1.40;;;23.20;18.50;;;;;;5027816;28;20944;-70
2023/05/04 09:44:21;;;;;;;2.87;1.50;;;23.70;18.70;;;;;;5032287;28;20416;-70
2023/05/04 09:46:59;;;;;;;3.10;1.60;;;23.30;18.40;;;;;;5036143;28;20704;-70
2023/05/04 09:49:32;;;;;;;3.17;1.70;;;23.40;18.40;;;;;;5035939;28;20425;-70
2023/05/04 09:52:02;;;;;;;3.20;1.60;;;23.30;17.10;;;;;;5032729;28;20435;-70
2023/05/04 09:54:33;;;;;;;3.30;1.70;;;23.30;17.90;;;;;;5026620;28;20834;-69
2023/05/04 09:57:12;;;;;;;3.20;1.40;;;23.00;17.50;;;;;;5035707;28;20467;-70
2023/05/04 09:59:39;;;;;;;3.77;1.83;;;23.60;18.80;;;;;;5030279;28;20453;-70
2023/05/04 10:02:05;;;;;;;2.80;1.20;;;23.70;16.50;;;;;;5031502;28;20460;-70
2023/05/04 10:04:38;;;;;;;3.50;1.53;;;23.80;15.90;;;;;;5035963;28;20464;-71
2023/05/04 10:07:04;;;;;;;3.70;1.77;;;23.70;16.30;;;;;;5026485;28;20841;-70
2023/05/04 10:09:31;;;;;;;3.30;1.60;;;23.80;18.00;;;;;;5023386;28;20452;-70
2023/05/04 10:12:04;;;;;;;4.20;2.03;;;24.10;15.60;;;;;;5029729;28;20927;-71
2023/05/04 10:14:32;;;;;;;3.23;1.50;;;24.30;15.80;;;;;;5035611;28;20414;-70
2023/05/04 10:17:16;;;;;;;4.10;1.83;;;24.40;16.60;;;;;;5032045;28;20438;-70
2023/05/04 10:19:46;;;;;;;3.13;1.50;;;24.40;16.80;;;;;;5023486;28;20461;-70
2023/05/04 10:22:27;;;;;;;3.40;1.60;;;24.50;18.10;;;;;;5037000;28;20410;-70
2023/05/04 10:25:26;;;;;;;3.20;1.43;;;24.90;16.10;;;;;;5036365;28;20410;-68
2023/05/04 10:28:37;;;;;;;3.30;1.60;;;25.10;16.30;;;;;;5033121;28;20442;-70
2023/05/04 10:31:05;;;;;;;3.30;1.50;;;24.90;16.40;;;;;;5034847;28;20427;-68
2023/05/04 10:33:38;;;;;;;3.83;1.67;;;25.10;15.50;;;;;;5038252;28;20861;-69
2023/05/04 10:36:04;;;;;;;3.60;1.60;;;25.30;15.40;;;;;;5034311;28;20495;-70
2023/05/04 10:38:34;;;;;;;4.07;1.77;;;25.60;14.60;;;;;;5025584;28;20516;-70
2023/05/04 10:41:00;;;;;;;3.50;1.60;;;25.70;14.60;;;;;;5028250;28;20481;-70
2023/05/04 10:43:28;;;;;;;3.70;1.60;;;25.30;13.60;;;;;;5033401;28;20445;-70
2023/05/04 10:45:56;;;;;;;3.30;1.40;;;25.50;14.80;;;;;;5033036;28;20299;-70
2023/05/04 10:48:34;;;;;;;3.30;1.37;;;25.50;13.90;;;;;;5031470;28;20516;-70
2023/05/04 10:50:59;;;;;;;4.13;1.90;;;25.40;13.00;;;;;;5024374;28;20440;-70
2023/05/04 10:53:31;;;;;;;3.40;1.63;;;25.40;13.50;;;;;;5033324;28;20423;-69
2023/05/04 10:55:57;;;;;;;3.20;1.40;;;25.70;13.20;;;;;;5034105;28;20223;-70
2023/05/04 10:58:31;;;;;;;3.60;1.57;;;26.10;12.70;;;;;;5033036;28;20569;-70
2023/05/04 11:00:57;;;;;;;3.47;1.43;;;25.80;15.10;;;;;;5021376;28;20206;-68
2023/05/04 11:03:23;;;;;;;3.90;1.50;;;26.20;14.50;;;;;;5030469;28;20411;-70
2023/05/04 11:05:53;;;;;;;3.70;1.70;;;26.30;16.10;;;;;;5034365;28;20192;-70
2023/05/04 11:08:23;;;;;;;3.67;1.67;;;26.50;14.80;;;;;;5036007;28;20450;-70
2023/05/04 11:11:03;;;;;;;5.17;1.93;;;26.80;14.00;;;;;;5026683;28;20804;-70
2023/05/04 11:13:30;;;;;;;3.80;1.50;;;27.00;14.40;;;;;;5033844;28;20449;-70
2023/05/04 11:15:56;;;;;;;3.63;1.43;;;26.70;16.20;;;;;;5036137;28;20945;-70
2023/05/04 11:18:29;;;;;;;3.47;1.57;;;27.00;13.80;;;;;;5036249;28;20462;-69
2023/05/04 11:20:55;;;;;;;3.97;1.63;;;27.00;15.10;;;;;;5032524;28;20179;-70
2023/05/04 11:23:21;;;;;;;3.70;1.60;;;28.10;14.00;;;;;;5026279;28;20407;-70
2023/05/04 11:25:47;;;;;;;3.40;1.50;;;29.60;11.40;;;;;;5034712;28;20168;-70
2023/05/04 11:28:13;;;;;;;3.30;1.40;;;30.60;10.30;;;;;;5035062;28;20453;-70
2023/05/04 11:30:40;;;;;;;3.70;1.40;;;31.30;11.60;;;;;;5030674;28;20656;-67
2023/05/04 11:33:15;;;;;;;3.90;1.43;;;31.00;9.30;;;;;;5021595;28;20184;-71
2023/05/04 11:35:42;;;;;;;4.00;1.60;;;31.00;8.80;;;;;;5034979;28;20406;-71
2023/05/04 11:38:08;;;;;;;4.00;1.50;;;31.20;8.30;;;;;;5034329;28;20549;-69
2023/05/04 11:40:36;;;;;;;4.00;1.40;;;31.60;8.10;;;;;;5034461;28;21570;-69
2023/05/04 11:43:03;;;;;;;4.03;1.53;;;31.20;7.90;;;;;;5022011;28;20427;-71
2023/05/04 11:45:33;;;;;;;4.13;1.40;;;32.00;9.20;;;;;;5032699;28;20407;-70
2023/05/04 11:48:00;;;;;;;3.50;1.40;;;31.30;8.10;;;;;;5034046;28;20514;-71
2023/05/04 11:50:27;;;;;;;13.13;1.60;;;32.10;7.70;;;;;;5033501;28;20411;-71
2023/05/04 11:53:12;;;;;;;3.50;1.30;;;33.00;9.10;;;;;;5029282;28;20834;-71
2023/05/04 11:55:38;;;;;;;3.30;1.50;;;33.70;8.50;;;;;;5024647;28;20402;-71
2023/05/04 11:58:07;;;;;;;2.90;1.10;;;33.90;7.00;;;;;;5036101;28;20451;-69
2023/05/04 12:00:39;;;;;;;3.30;1.37;;;34.60;8.00;;;;;;5040502;28;20411;-71
2023/05/04 12:03:06;;;;;;;3.17;1.60;;;35.30;6.00;;;;;;5031100;28;20434;-71
2023/05/04 12:05:33;;;;;;;3.87;1.50;;;34.30;6.20;;;;;;5023835;28;20440;-71
2023/05/04 12:07:59;;;;;;;2.80;1.40;;;35.50;4.70;;;;;;5032436;28;20435;-69
2023/05/04 12:10:34;;;;;;;2.73;1.50;;;35.40;5.00;;;;;;5032509;28;20460;-71
2023/05/04 12:13:13;;;;;;;3.10;1.70;;;34.90;5.40;;;;;;5030703;28;20192;-71
2023/05/04 12:15:39;;;;;;;3.47;1.50;;;34.80;6.80;;;;;;5022923;28;21011;-71
2023/05/04 12:18:05;;;;;;;2.77;1.60;;;36.40;6.90;;;;;;5032048;28;20486;-72
2023/05/04 12:20:30;;;;;;;3.97;1.90;;;35.80;6.60;;;;;;5032417;28;20195;-71
2023/05/04 12:22:57;;;;;;;2.60;1.30;;;36.00;6.60;;;;;;5031848;28;20179;-71
2023/05/04 12:25:23;;;;;;;2.50;1.40;;;36.30;6.80;;;;;;5026143;28;20662;-71
2023/05/04 12:27:49;;;;;;;2.63;1.50;;;35.50;6.30;;;;;;5024793;28;20407;-71
2023/05/04 12:30:15;;;;;;;3.30;1.70;;;35.60;6.50;;;;;;5023111;28;20447;-70
2023/05/04 12:32:42;;;;;;;3.10;1.40;;;35.70;5.80;;;;;;5031165;28;20411;-72
2023/05/04 12:35:08;;;;;;;3.90;1.60;;;35.10;8.10;;;;;;5031005;28;20550;-71
2023/05/04 12:37:34;;;;;;;3.10;1.50;;;35.30;8.10;;;;;;5022729;28;20470;-71
2023/05/04 12:40:00;;;;;;;4.70;2.00;;;35.10;5.30;;;;;;5031717;28;20453;-72
2023/05/04 12:42:26;;;;;;;2.80;1.53;;;34.90;7.10;;;;;;5024162;28;20176;-71
2023/05/04 12:44:52;;;;;;;3.10;1.63;;;34.40;7.80;;;;;;5021299;28;20182;-71
2023/05/04 12:47:19;;;;;;;11.53;1.60;;;34.10;6.40;;;;;;5028541;28;20457;-71
2023/05/04 12:49:45;;;;;;;3.20;1.73;;;34.90;7.70;;;;;;5029908;28;20516;-69